sensor_id;sensor_type;location;lat;lon;timestamp;temperature;humidity
27707;DHT22;36332;51.384;0.040;2024-03-23T00:53:16;5.10;99.90
27707;DHT22;36332;51.384;0.040;2024-03-23T01:03:06;6.10;99.90
27707;DHT22;36332;51.384;0.040;2024-03-23T01:08:01;6.30;99.90
27707;DHT22;36332;51.384;0.040;2024-03-23T01:10:28;6.40;99.90
27707;DHT22;36332;51.384;0.040;2024-03-23T01:12:55;4.20;99.90
27707;DHT22;36332;51.384;0.040;2024-03-23T01:15:21;6.90;99.90
27707;DHT22;36332;51.384;0.040;2024-03-23T01:17:48;6.10;99.90
27707;DHT22;36332;51.384;0.040;2024-03-23T01:20:14;5.80;99.90
27707;DHT22;36332;51.384;0.040;2024-03-23T01:22:41;5.90;99.90
27707;DHT22;36332;51.384;0.040;2024-03-23T01:25:08;4.30;99.90
27707;DHT22;36332;51.384;0.040;2024-03-23T01:27:34;6.20;99.90
27707;DHT22;36332;51.384;0.040;2024-03-23T01:30:01;7.20;99.90
27707;DHT22;36332;51.384;0.040;2024-03-23T01:32:28;6.30;99.90
27707;DHT22;36332;51.384;0.040;2024-03-23T01:34:54;6.20;99.90
27707;DHT22;36332;51.384;0.040;2024-03-23T01:37:21;5.80;99.90
27707;DHT22;36332;51.384;0.040;2024-03-23T01:44:42;6.00;99.90
27707;DHT22;36332;51.384;0.040;2024-03-23T01:47:09;6.50;99.90
27707;DHT22;36332;51.384;0.040;2024-03-23T01:49:36;6.00;99.90
27707;DHT22;36332;51.384;0.040;2024-03-23T01:52:03;6.10;99.90
27707;DHT22;36332;51.384;0.040;2024-03-23T01:54:30;5.80;99.90
27707;DHT22;36332;51.384;0.040;2024-03-23T01:56:58;5.80;99.90
27707;DHT22;36332;51.384;0.040;2024-03-23T01:59:26;5.70;99.90
27707;DHT22;36332;51.384;0.040;2024-03-23T02:01:53;5.90;99.90
27707;DHT22;36332;51.384;0.040;2024-03-23T02:04:22;6.20;99.90
27707;DHT22;36332;51.384;0.040;2024-03-23T02:06:49;6.10;99.90
27707;DHT22;36332;51.384;0.040;2024-03-23T02:11:42;5.70;99.90
27707;DHT22;36332;51.384;0.040;2024-03-23T02:14:09;5.80;99.90
27707;DHT22;36332;51.384;0.040;2024-03-23T02:16:35;6.50;99.90
27707;DHT22;36332;51.384;0.040;2024-03-23T02:19:02;5.90;99.90
27707;DHT22;36332;51.384;0.040;2024-03-23T02:21:28;5.90;99.90
27707;DHT22;36332;51.384;0.040;2024-03-23T02:23:59;5.90;99.90
27707;DHT22;36332;51.384;0.040;2024-03-23T02:26:26;6.00;99.90
27707;DHT22;36332;51.384;0.040;2024-03-23T02:28:53;5.90;99.90
27707;DHT22;36332;51.384;0.040;2024-03-23T02:31:19;6.00;99.90
27707;DHT22;36332;51.384;0.040;2024-03-23T02:33:46;6.40;99.90
27707;DHT22;36332;51.384;0.040;2024-03-23T02:36:12;5.80;99.90
27707;DHT22;36332;51.384;0.040;2024-03-23T02:38:39;4.20;99.90
27707;DHT22;36332;51.384;0.040;2024-03-23T02:41:06;5.80;99.90
27707;DHT22;36332;51.384;0.040;2024-03-23T02:43:32;6.40;99.90
27707;DHT22;36332;51.384;0.040;2024-03-23T02:45:59;6.00;99.90
27707;DHT22;36332;51.384;0.040;2024-03-23T02:48:25;6.10;99.90
27707;DHT22;36332;51.384;0.040;2024-03-23T02:50:52;5.70;99.90
27707;DHT22;36332;51.384;0.040;2024-03-23T02:53:20;5.80;99.90
27707;DHT22;36332;51.384;0.040;2024-03-23T02:55:47;5.40;99.90
27707;DHT22;36332;51.384;0.040;2024-03-23T02:58:13;5.60;99.90
27707;DHT22;36332;51.384;0.040;2024-03-23T03:00:40;5.20;99.90
27707;DHT22;36332;51.384;0.040;2024-03-23T03:03:11;6.00;99.90
27707;DHT22;36332;51.384;0.040;2024-03-23T03:05:37;5.90;99.90
27707;DHT22;36332;51.384;0.040;2024-03-23T03:08:06;5.50;99.90
27707;DHT22;36332;51.384;0.040;2024-03-23T03:15:29;5.50;99.90
27707;DHT22;36332;51.384;0.040;2024-03-23T03:20:24;5.50;99.90
27707;DHT22;36332;51.384;0.040;2024-03-23T03:22:50;5.40;99.90
27707;DHT22;36332;51.384;0.040;2024-03-23T03:27:48;5.30;99.90
27707;DHT22;36332;51.384;0.040;2024-03-23T03:30:14;5.60;99.90
27707;DHT22;36332;51.384;0.040;2024-03-23T03:32:41;5.10;99.90
27707;DHT22;36332;51.384;0.040;2024-03-23T03:35:08;5.50;99.90
27707;DHT22;36332;51.384;0.040;2024-03-23T03:37:34;5.30;99.90
27707;DHT22;36332;51.384;0.040;2024-03-23T03:42:29;5.20;99.90
27707;DHT22;36332;51.384;0.040;2024-03-23T03:44:56;4.90;99.90
27707;DHT22;36332;51.384;0.040;2024-03-23T03:47:22;5.40;99.90
27707;DHT22;36332;51.384;0.040;2024-03-23T03:49:49;5.40;99.90
27707;DHT22;36332;51.384;0.040;2024-03-23T03:52:15;5.30;99.90
27707;DHT22;36332;51.384;0.040;2024-03-23T03:54:42;5.40;99.90
27707;DHT22;36332;51.384;0.040;2024-03-23T03:57:09;5.80;99.90
27707;DHT22;36332;51.384;0.040;2024-03-23T03:59:37;4.80;99.90
27707;DHT22;36332;51.384;0.040;2024-03-23T04:02:06;4.90;99.90
27707;DHT22;36332;51.384;0.040;2024-03-23T04:04:33;4.70;99.90
27707;DHT22;36332;51.384;0.040;2024-03-23T04:07:03;5.20;99.90
27707;DHT22;36332;51.384;0.040;2024-03-23T04:09:31;5.40;99.90
27707;DHT22;36332;51.384;0.040;2024-03-23T04:11:58;4.00;99.90
27707;DHT22;36332;51.384;0.040;2024-03-23T04:14:24;6.00;99.90
27707;DHT22;36332;51.384;0.040;2024-03-23T04:16:51;5.10;99.90
27707;DHT22;36332;51.384;0.040;2024-03-23T04:19:17;5.20;99.90
27707;DHT22;36332;51.384;0.040;2024-03-23T04:21:44;4.70;99.90
27707;DHT22;36332;51.384;0.040;2024-03-23T04:24:10;5.80;99.90
27707;DHT22;36332;51.384;0.040;2024-03-23T04:26:43;5.30;99.90
27707;DHT22;36332;51.384;0.040;2024-03-23T04:29:10;5.40;99.90
27707;DHT22;36332;51.384;0.040;2024-03-23T04:31:37;4.20;99.90
27707;DHT22;36332;51.384;0.040;2024-03-23T04:34:03;6.00;99.90
27707;DHT22;36332;51.384;0.040;2024-03-23T04:36:30;4.70;99.90
27707;DHT22;36332;51.384;0.040;2024-03-23T04:38:59;5.20;99.90
27707;DHT22;36332;51.384;0.040;2024-03-23T04:41:26;5.70;99.90
27707;DHT22;36332;51.384;0.040;2024-03-23T04:43:52;6.40;99.90
27707;DHT22;36332;51.384;0.040;2024-03-23T04:46:19;4.90;99.90
27707;DHT22;36332;51.384;0.040;2024-03-23T04:48:47;5.20;99.90
27707;DHT22;36332;51.384;0.040;2024-03-23T04:51:21;4.90;99.90
27707;DHT22;36332;51.384;0.040;2024-03-23T04:53:48;5.10;99.90
27707;DHT22;36332;51.384;0.040;2024-03-23T04:56:15;4.60;99.90
27707;DHT22;36332;51.384;0.040;2024-03-23T04:58:43;5.60;99.90
27707;DHT22;36332;51.384;0.040;2024-03-23T05:01:11;5.20;99.90
27707;DHT22;36332;51.384;0.040;2024-03-23T05:03:37;5.20;99.90
27707;DHT22;36332;51.384;0.040;2024-03-23T05:11:00;4.70;99.90
27707;DHT22;36332;51.384;0.040;2024-03-23T05:15:54;4.70;99.90
27707;DHT22;36332;51.384;0.040;2024-03-23T05:18:22;4.60;99.90
27707;DHT22;36332;51.384;0.040;2024-03-23T05:20:48;5.00;99.90
27707;DHT22;36332;51.384;0.040;2024-03-23T05:23:15;4.90;99.90
27707;DHT22;36332;51.384;0.040;2024-03-23T05:25:42;4.70;99.90
27707;DHT22;36332;51.384;0.040;2024-03-23T05:28:11;6.30;99.90
27707;DHT22;36332;51.384;0.040;2024-03-23T05:30:38;4.80;99.90
27707;DHT22;36332;51.384;0.040;2024-03-23T05:33:04;5.00;99.90
27707;DHT22;36332;51.384;0.040;2024-03-23T05:35:31;4.80;99.90
27707;DHT22;36332;51.384;0.040;2024-03-23T05:37:58;4.60;99.90
27707;DHT22;36332;51.384;0.040;2024-03-23T05:40:26;4.70;99.90
27707;DHT22;36332;51.384;0.040;2024-03-23T05:42:53;5.50;99.90
27707;DHT22;36332;51.384;0.040;2024-03-23T05:45:20;5.10;99.90
27707;DHT22;36332;51.384;0.040;2024-03-23T05:47:47;5.10;99.90
27707;DHT22;36332;51.384;0.040;2024-03-23T05:50:14;4.90;99.90
27707;DHT22;36332;51.384;0.040;2024-03-23T05:52:40;4.80;99.90
27707;DHT22;36332;51.384;0.040;2024-03-23T05:55:08;5.00;99.90
27707;DHT22;36332;51.384;0.040;2024-03-23T05:57:35;5.00;99.90
27707;DHT22;36332;51.384;0.040;2024-03-23T06:00:01;4.80;99.90
27707;DHT22;36332;51.384;0.040;2024-03-23T06:02:38;4.70;99.90
27707;DHT22;36332;51.384;0.040;2024-03-23T06:05:04;4.80;99.90
27707;DHT22;36332;51.384;0.040;2024-03-23T06:07:31;4.80;99.90
27707;DHT22;36332;51.384;0.040;2024-03-23T06:09:58;4.60;99.90
27707;DHT22;36332;51.384;0.040;2024-03-23T06:12:24;4.10;99.90
27707;DHT22;36332;51.384;0.040;2024-03-23T06:14:51;4.80;99.90
27707;DHT22;36332;51.384;0.040;2024-03-23T06:17:17;4.80;99.90
27707;DHT22;36332;51.384;0.040;2024-03-23T06:19:44;5.80;99.90
27707;DHT22;36332;51.384;0.040;2024-03-23T06:22:11;5.20;99.90
27707;DHT22;36332;51.384;0.040;2024-03-23T06:24:37;5.90;99.90
27707;DHT22;36332;51.384;0.040;2024-03-23T06:27:04;4.90;99.90
27707;DHT22;36332;51.384;0.040;2024-03-23T06:29:31;4.90;99.90
27707;DHT22;36332;51.384;0.040;2024-03-23T06:31:58;5.00;99.90
27707;DHT22;36332;51.384;0.040;2024-03-23T06:34:25;5.00;99.90
27707;DHT22;36332;51.384;0.040;2024-03-23T06:36:51;5.00;99.90
27707;DHT22;36332;51.384;0.040;2024-03-23T06:39:18;3.40;99.90
27707;DHT22;36332;51.384;0.040;2024-03-23T06:41:54;4.70;99.90
27707;DHT22;36332;51.384;0.040;2024-03-23T06:44:21;5.20;99.90
27707;DHT22;36332;51.384;0.040;2024-03-23T06:46:47;6.20;99.90
27707;DHT22;36332;51.384;0.040;2024-03-23T06:49:15;5.20;99.90
27707;DHT22;36332;51.384;0.040;2024-03-23T06:51:42;5.30;99.90
27707;DHT22;36332;51.384;0.040;2024-03-23T06:54:08;5.00;99.90
27707;DHT22;36332;51.384;0.040;2024-03-23T06:56:35;5.50;99.90
27707;DHT22;36332;51.384;0.040;2024-03-23T06:59:02;6.00;99.90
27707;DHT22;36332;51.384;0.040;2024-03-23T07:01:28;4.60;99.90
27707;DHT22;36332;51.384;0.040;2024-03-23T07:03:55;5.70;99.90
27707;DHT22;36332;51.384;0.040;2024-03-23T07:06:22;6.00;99.90
27707;DHT22;36332;51.384;0.040;2024-03-23T07:08:48;6.20;99.90
27707;DHT22;36332;51.384;0.040;2024-03-23T07:11:19;5.70;99.90
27707;DHT22;36332;51.384;0.040;2024-03-23T07:13:46;6.10;99.90
27707;DHT22;36332;51.384;0.040;2024-03-23T07:18:40;5.80;99.90
27707;DHT22;36332;51.384;0.040;2024-03-23T07:21:07;5.70;99.90
27707;DHT22;36332;51.384;0.040;2024-03-23T07:23:33;5.30;99.90
27707;DHT22;36332;51.384;0.040;2024-03-23T07:26:04;6.40;99.90
27707;DHT22;36332;51.384;0.040;2024-03-23T07:31:07;5.90;99.90
27707;DHT22;36332;51.384;0.040;2024-03-23T07:33:41;6.60;99.90
27707;DHT22;36332;51.384;0.040;2024-03-23T07:36:08;6.10;99.90
27707;DHT22;36332;51.384;0.040;2024-03-23T07:38:35;6.50;99.90
27707;DHT22;36332;51.384;0.040;2024-03-23T07:41:08;6.10;99.90
27707;DHT22;36332;51.384;0.040;2024-03-23T07:43:36;6.20;99.90
27707;DHT22;36332;51.384;0.040;2024-03-23T07:46:04;7.30;99.90
27707;DHT22;36332;51.384;0.040;2024-03-23T07:48:31;6.60;99.90
27707;DHT22;36332;51.384;0.040;2024-03-23T07:51:01;6.80;99.90
27707;DHT22;36332;51.384;0.040;2024-03-23T07:53:28;6.80;99.90
27707;DHT22;36332;51.384;0.040;2024-03-23T07:58:30;6.60;99.90
27707;DHT22;36332;51.384;0.040;2024-03-23T08:01:04;7.20;99.90
27707;DHT22;36332;51.384;0.040;2024-03-23T08:03:31;8.00;99.90
27707;DHT22;36332;51.384;0.040;2024-03-23T08:08:25;7.20;99.90
27707;DHT22;36332;51.384;0.040;2024-03-23T08:10:52;7.10;99.90
27707;DHT22;36332;51.384;0.040;2024-03-23T08:13:19;8.10;99.90
27707;DHT22;36332;51.384;0.040;2024-03-23T08:15:46;7.60;99.90
27707;DHT22;36332;51.384;0.040;2024-03-23T08:18:13;7.90;99.90
27707;DHT22;36332;51.384;0.040;2024-03-23T08:20:41;8.40;99.90
27707;DHT22;36332;51.384;0.040;2024-03-23T08:23:08;7.40;99.90
27707;DHT22;36332;51.384;0.040;2024-03-23T08:25:35;8.20;99.90
27707;DHT22;36332;51.384;0.040;2024-03-23T08:28:02;6.60;99.90
27707;DHT22;36332;51.384;0.040;2024-03-23T08:30:28;8.40;99.90
27707;DHT22;36332;51.384;0.040;2024-03-23T08:32:56;8.50;99.90
27707;DHT22;36332;51.384;0.040;2024-03-23T08:35:22;8.40;99.90
27707;DHT22;36332;51.384;0.040;2024-03-23T08:37:49;8.40;99.90
27707;DHT22;36332;51.384;0.040;2024-03-23T08:40:15;8.60;99.90
27707;DHT22;36332;51.384;0.040;2024-03-23T08:42:42;8.40;99.90
27707;DHT22;36332;51.384;0.040;2024-03-23T08:45:09;8.80;99.90
27707;DHT22;36332;51.384;0.040;2024-03-23T08:47:36;8.80;99.90
27707;DHT22;36332;51.384;0.040;2024-03-23T08:52:30;8.70;99.90
27707;DHT22;36332;51.384;0.040;2024-03-23T08:54:57;8.90;99.90
27707;DHT22;36332;51.384;0.040;2024-03-23T08:57:24;8.60;99.90
27707;DHT22;36332;51.384;0.040;2024-03-23T08:59:50;9.10;99.90
27707;DHT22;36332;51.384;0.040;2024-03-23T09:02:18;9.70;99.90
27707;DHT22;36332;51.384;0.040;2024-03-23T09:04:45;9.30;99.90
27707;DHT22;36332;51.384;0.040;2024-03-23T09:07:12;9.50;99.90
27707;DHT22;36332;51.384;0.040;2024-03-23T09:09:39;10.40;99.90
27707;DHT22;36332;51.384;0.040;2024-03-23T09:12:06;10.10;99.90
27707;DHT22;36332;51.384;0.040;2024-03-23T09:14:33;9.70;99.90
27707;DHT22;36332;51.384;0.040;2024-03-23T09:17:00;9.90;99.90
27707;DHT22;36332;51.384;0.040;2024-03-23T09:19:28;10.00;99.90
27707;DHT22;36332;51.384;0.040;2024-03-23T09:21:55;10.70;99.90
27707;DHT22;36332;51.384;0.040;2024-03-23T09:24:22;10.20;99.90
27707;DHT22;36332;51.384;0.040;2024-03-23T09:26:48;10.30;99.90
27707;DHT22;36332;51.384;0.040;2024-03-23T09:29:17;10.30;99.90
27707;DHT22;36332;51.384;0.040;2024-03-23T09:31:43;10.40;99.90
27707;DHT22;36332;51.384;0.040;2024-03-23T09:34:10;10.30;99.90
27707;DHT22;36332;51.384;0.040;2024-03-23T09:36:37;10.00;99.90
27707;DHT22;36332;51.384;0.040;2024-03-23T09:39:03;9.70;99.90
27707;DHT22;36332;51.384;0.040;2024-03-23T09:43:59;10.60;99.90
27707;DHT22;36332;51.384;0.040;2024-03-23T09:46:27;10.90;99.90
27707;DHT22;36332;51.384;0.040;2024-03-23T09:48:57;10.30;99.90
27707;DHT22;36332;51.384;0.040;2024-03-23T09:51:26;10.40;99.90
27707;DHT22;36332;51.384;0.040;2024-03-23T09:53:52;10.70;99.90
27707;DHT22;36332;51.384;0.040;2024-03-23T09:56:19;11.10;99.90
27707;DHT22;36332;51.384;0.040;2024-03-23T09:58:46;10.80;99.90
27707;DHT22;36332;51.384;0.040;2024-03-23T10:01:12;11.30;99.90
27707;DHT22;36332;51.384;0.040;2024-03-23T10:03:46;11.20;99.90
27707;DHT22;36332;51.384;0.040;2024-03-23T10:06:12;11.10;99.90
27707;DHT22;36332;51.384;0.040;2024-03-23T10:08:39;11.30;99.90
27707;DHT22;36332;51.384;0.040;2024-03-23T10:11:16;10.80;99.90
27707;DHT22;36332;51.384;0.040;2024-03-23T10:13:43;10.70;99.90
27707;DHT22;36332;51.384;0.040;2024-03-23T10:16:10;11.00;99.90
27707;DHT22;36332;51.384;0.040;2024-03-23T10:18:38;11.30;99.90
27707;DHT22;36332;51.384;0.040;2024-03-23T10:21:10;10.60;99.90
27707;DHT22;36332;51.384;0.040;2024-03-23T10:26:24;10.60;99.90
27707;DHT22;36332;51.384;0.040;2024-03-23T10:29:01;10.60;99.90
27707;DHT22;36332;51.384;0.040;2024-03-23T10:31:29;10.60;99.90
27707;DHT22;36332;51.384;0.040;2024-03-23T10:33:56;10.30;99.90
27707;DHT22;36332;51.384;0.040;2024-03-23T10:36:24;11.40;99.90
27707;DHT22;36332;51.384;0.040;2024-03-23T10:38:54;11.00;99.90
27707;DHT22;36332;51.384;0.040;2024-03-23T10:41:26;11.50;99.90
27707;DHT22;36332;51.384;0.040;2024-03-23T10:43:55;11.50;99.90
27707;DHT22;36332;51.384;0.040;2024-03-23T10:51:18;11.60;99.90
27707;DHT22;36332;51.384;0.040;2024-03-23T10:53:45;11.60;99.90
27707;DHT22;36332;51.384;0.040;2024-03-23T10:56:12;11.30;99.90
27707;DHT22;36332;51.384;0.040;2024-03-23T10:58:47;11.50;99.90
27707;DHT22;36332;51.384;0.040;2024-03-23T11:01:15;11.60;99.90
27707;DHT22;36332;51.384;0.040;2024-03-23T11:03:46;11.90;99.90
27707;DHT22;36332;51.384;0.040;2024-03-23T11:06:34;12.20;99.90
27707;DHT22;36332;51.384;0.040;2024-03-23T11:09:00;12.30;99.90
27707;DHT22;36332;51.384;0.040;2024-03-23T11:11:27;12.40;99.90
27707;DHT22;36332;51.384;0.040;2024-03-23T11:13:58;12.40;99.90
27707;DHT22;36332;51.384;0.040;2024-03-23T11:16:27;12.30;99.90
27707;DHT22;36332;51.384;0.040;2024-03-23T11:19:34;11.50;99.90
27707;DHT22;36332;51.384;0.040;2024-03-23T11:26:55;11.70;99.90
27707;DHT22;36332;51.384;0.040;2024-03-23T11:31:52;12.80;99.90
27707;DHT22;36332;51.384;0.040;2024-03-23T11:34:20;13.20;99.90
27707;DHT22;36332;51.384;0.040;2024-03-23T11:36:47;14.40;99.90
27707;DHT22;36332;51.384;0.040;2024-03-23T11:51:48;12.90;99.90
27707;DHT22;36332;51.384;0.040;2024-03-23T11:54:15;13.20;99.90
27707;DHT22;36332;51.384;0.040;2024-03-23T11:56:59;13.80;99.90
27707;DHT22;36332;51.384;0.040;2024-03-23T11:59:37;13.80;99.90
27707;DHT22;36332;51.384;0.040;2024-03-23T12:02:07;13.70;99.90
27707;DHT22;36332;51.384;0.040;2024-03-23T12:04:35;13.60;99.90
27707;DHT22;36332;51.384;0.040;2024-03-23T12:09:46;13.30;99.90
27707;DHT22;36332;51.384;0.040;2024-03-23T12:12:18;13.20;99.90
27707;DHT22;36332;51.384;0.040;2024-03-23T12:14:45;13.00;99.90
27707;DHT22;36332;51.384;0.040;2024-03-23T12:17:13;12.80;99.90
27707;DHT22;36332;51.384;0.040;2024-03-23T12:19:41;12.80;99.90
27707;DHT22;36332;51.384;0.040;2024-03-23T12:22:08;13.00;99.90
27707;DHT22;36332;51.384;0.040;2024-03-23T12:24:35;13.50;99.90
27707;DHT22;36332;51.384;0.040;2024-03-23T12:27:03;15.40;99.90
27707;DHT22;36332;51.384;0.040;2024-03-23T12:29:31;15.00;99.90
27707;DHT22;36332;51.384;0.040;2024-03-23T12:32:02;14.60;99.90
27707;DHT22;36332;51.384;0.040;2024-03-23T12:34:29;14.70;99.90
27707;DHT22;36332;51.384;0.040;2024-03-23T12:36:56;15.40;99.90
27707;DHT22;36332;51.384;0.040;2024-03-23T12:39:23;14.60;99.90
27707;DHT22;36332;51.384;0.040;2024-03-23T12:41:50;14.80;99.90
27707;DHT22;36332;51.384;0.040;2024-03-23T12:44:19;14.70;99.90
27707;DHT22;36332;51.384;0.040;2024-03-23T12:46:45;15.20;99.90
27707;DHT22;36332;51.384;0.040;2024-03-23T12:49:12;14.80;99.90
27707;DHT22;36332;51.384;0.040;2024-03-23T12:51:48;14.90;99.90
27707;DHT22;36332;51.384;0.040;2024-03-23T12:54:14;15.00;99.90
27707;DHT22;36332;51.384;0.040;2024-03-23T12:56:41;15.50;99.90
27707;DHT22;36332;51.384;0.040;2024-03-23T12:59:07;15.30;99.90
27707;DHT22;36332;51.384;0.040;2024-03-23T13:04:01;15.50;99.90
27707;DHT22;36332;51.384;0.040;2024-03-23T13:06:28;16.50;99.90
27707;DHT22;36332;51.384;0.040;2024-03-23T13:11:31;14.80;99.90
27707;DHT22;36332;51.384;0.040;2024-03-23T13:13:57;14.60;99.90
27707;DHT22;36332;51.384;0.040;2024-03-23T13:16:24;14.40;99.90
27707;DHT22;36332;51.384;0.040;2024-03-23T13:18:51;14.60;99.90
27707;DHT22;36332;51.384;0.040;2024-03-23T13:36:05;13.20;99.90
27707;DHT22;36332;51.384;0.040;2024-03-23T13:38:31;13.40;99.90
27707;DHT22;36332;51.384;0.040;2024-03-23T13:40:59;13.10;99.90
27707;DHT22;36332;51.384;0.040;2024-03-23T13:43:27;13.00;99.90
27707;DHT22;36332;51.384;0.040;2024-03-23T13:45:58;12.70;99.90
27707;DHT22;36332;51.384;0.040;2024-03-23T13:48:28;12.50;99.90
27707;DHT22;36332;51.384;0.040;2024-03-23T13:51:04;12.50;99.90
27707;DHT22;36332;51.384;0.040;2024-03-23T13:53:31;12.30;99.90
27707;DHT22;36332;51.384;0.040;2024-03-23T13:55:59;12.20;99.90
27707;DHT22;36332;51.384;0.040;2024-03-23T13:58:25;10.80;99.90
27707;DHT22;36332;51.384;0.040;2024-03-23T14:00:52;9.80;99.90
27707;DHT22;36332;51.384;0.040;2024-03-23T14:03:19;8.80;99.90
27707;DHT22;36332;51.384;0.040;2024-03-23T14:05:46;8.10;99.90
27707;DHT22;36332;51.384;0.040;2024-03-23T14:10:43;7.20;99.90
27707;DHT22;36332;51.384;0.040;2024-03-23T14:13:09;7.80;99.90
27707;DHT22;36332;51.384;0.040;2024-03-23T14:15:36;7.20;99.90
27707;DHT22;36332;51.384;0.040;2024-03-23T14:18:03;7.30;99.90
27707;DHT22;36332;51.384;0.040;2024-03-23T14:20:30;6.90;99.90
27707;DHT22;36332;51.384;0.040;2024-03-23T14:22:57;7.30;99.90
27707;DHT22;36332;51.384;0.040;2024-03-23T14:25:23;7.60;99.90
27707;DHT22;36332;51.384;0.040;2024-03-23T14:40:13;9.60;99.90
27707;DHT22;36332;51.384;0.040;2024-03-23T14:47:34;12.30;99.90
27707;DHT22;36332;51.384;0.040;2024-03-23T14:52:31;14.90;99.90
27707;DHT22;36332;51.384;0.040;2024-03-23T14:57:29;15.10;99.90
27707;DHT22;36332;51.384;0.040;2024-03-23T14:59:58;16.00;99.90
27707;DHT22;36332;51.384;0.040;2024-03-23T15:07:23;17.20;99.90
27707;DHT22;36332;51.384;0.040;2024-03-23T15:09:52;16.60;99.90
27707;DHT22;36332;51.384;0.040;2024-03-23T15:19:46;16.50;99.90
27707;DHT22;36332;51.384;0.040;2024-03-23T15:49:28;18.00;99.90
27707;DHT22;36332;51.384;0.040;2024-03-23T15:51:57;18.60;99.90
27707;DHT22;36332;51.384;0.040;2024-03-23T16:16:31;10.10;99.90
27707;DHT22;36332;51.384;0.040;2024-03-23T16:23:52;9.60;99.90
27707;DHT22;36332;51.384;0.040;2024-03-23T16:26:19;9.60;99.90
27707;DHT22;36332;51.384;0.040;2024-03-23T16:28:46;10.60;99.90
27707;DHT22;36332;51.384;0.040;2024-03-23T16:31:15;12.20;99.90
27707;DHT22;36332;51.384;0.040;2024-03-23T16:33:43;13.40;99.90
27707;DHT22;36332;51.384;0.040;2024-03-23T16:36:10;14.40;99.90
27707;DHT22;36332;51.384;0.040;2024-03-23T16:38:41;15.40;99.90
27707;DHT22;36332;51.384;0.040;2024-03-23T16:41:12;16.70;99.90
27707;DHT22;36332;51.384;0.040;2024-03-23T16:43:42;17.40;99.90
27707;DHT22;36332;51.384;0.040;2024-03-23T16:46:13;18.10;99.90
27707;DHT22;36332;51.384;0.040;2024-03-23T16:48:43;18.60;99.90
27707;DHT22;36332;51.384;0.040;2024-03-23T16:51:11;18.90;99.90
27707;DHT22;36332;51.384;0.040;2024-03-23T16:53:38;19.00;99.90
27707;DHT22;36332;51.384;0.040;2024-03-23T16:56:09;18.90;99.90
27707;DHT22;36332;51.384;0.040;2024-03-23T16:58:37;18.80;99.90
27707;DHT22;36332;51.384;0.040;2024-03-23T17:01:10;18.20;99.90
27707;DHT22;36332;51.384;0.040;2024-03-23T17:03:50;18.40;99.90
27707;DHT22;36332;51.384;0.040;2024-03-23T17:06:19;18.40;99.90
27707;DHT22;36332;51.384;0.040;2024-03-23T17:08:46;17.80;99.90
27707;DHT22;36332;51.384;0.040;2024-03-23T17:11:16;17.30;99.90
27707;DHT22;36332;51.384;0.040;2024-03-23T17:13:45;16.50;99.90
27707;DHT22;36332;51.384;0.040;2024-03-23T17:16:14;15.50;99.90
27707;DHT22;36332;51.384;0.040;2024-03-23T17:18:41;14.60;99.90
27707;DHT22;36332;51.384;0.040;2024-03-23T17:21:08;12.90;99.90
27707;DHT22;36332;51.384;0.040;2024-03-23T17:23:35;12.80;99.90
27707;DHT22;36332;51.384;0.040;2024-03-23T17:26:02;12.30;99.90
27707;DHT22;36332;51.384;0.040;2024-03-23T17:28:29;11.70;99.90
27707;DHT22;36332;51.384;0.040;2024-03-23T17:30:55;11.30;99.90
27707;DHT22;36332;51.384;0.040;2024-03-23T17:33:22;10.90;99.90
27707;DHT22;36332;51.384;0.040;2024-03-23T17:35:51;10.80;99.90
27707;DHT22;36332;51.384;0.040;2024-03-23T17:38:17;10.00;99.90
27707;DHT22;36332;51.384;0.040;2024-03-23T17:45:41;9.80;99.90
27707;DHT22;36332;51.384;0.040;2024-03-23T17:48:08;9.70;99.90
27707;DHT22;36332;51.384;0.040;2024-03-23T17:50:34;9.40;99.90
27707;DHT22;36332;51.384;0.040;2024-03-23T17:53:01;9.50;99.90
27707;DHT22;36332;51.384;0.040;2024-03-23T17:55:28;9.20;99.90
27707;DHT22;36332;51.384;0.040;2024-03-23T17:57:55;9.20;99.90
27707;DHT22;36332;51.384;0.040;2024-03-23T18:00:23;9.20;99.90
27707;DHT22;36332;51.384;0.040;2024-03-23T18:02:50;9.10;99.90
27707;DHT22;36332;51.384;0.040;2024-03-23T18:05:17;8.90;99.90
27707;DHT22;36332;51.384;0.040;2024-03-23T18:07:48;8.80;99.90
27707;DHT22;36332;51.384;0.040;2024-03-23T18:10:15;8.80;99.90
27707;DHT22;36332;51.384;0.040;2024-03-23T18:12:41;8.70;99.90
27707;DHT22;36332;51.384;0.040;2024-03-23T18:15:08;8.70;99.90
27707;DHT22;36332;51.384;0.040;2024-03-23T18:17:35;8.60;99.90
27707;DHT22;36332;51.384;0.040;2024-03-23T18:22:29;8.50;99.90
27707;DHT22;36332;51.384;0.040;2024-03-23T18:27:23;8.40;99.90
27707;DHT22;36332;51.384;0.040;2024-03-23T18:29:50;8.40;99.90
27707;DHT22;36332;51.384;0.040;2024-03-23T18:32:18;8.40;99.90
27707;DHT22;36332;51.384;0.040;2024-03-23T18:34:44;8.40;99.90
27707;DHT22;36332;51.384;0.040;2024-03-23T18:39:38;8.40;99.90
27707;DHT22;36332;51.384;0.040;2024-03-23T18:42:05;8.30;99.90
27707;DHT22;36332;51.384;0.040;2024-03-23T18:44:32;8.20;99.90
27707;DHT22;36332;51.384;0.040;2024-03-23T18:46:59;8.20;99.90
27707;DHT22;36332;51.384;0.040;2024-03-23T18:54:19;7.70;99.90
27707;DHT22;36332;51.384;0.040;2024-03-23T18:56:45;8.10;99.90
27707;DHT22;36332;51.384;0.040;2024-03-23T18:59:12;8.10;99.90
27707;DHT22;36332;51.384;0.040;2024-03-23T19:01:39;8.30;99.90
27707;DHT22;36332;51.384;0.040;2024-03-23T19:04:06;8.10;99.90
27707;DHT22;36332;51.384;0.040;2024-03-23T19:06:33;8.20;99.90
27707;DHT22;36332;51.384;0.040;2024-03-23T19:09:00;8.20;99.90
27707;DHT22;36332;51.384;0.040;2024-03-23T19:11:27;8.20;99.90
27707;DHT22;36332;51.384;0.040;2024-03-23T19:13:54;8.30;99.90
27707;DHT22;36332;51.384;0.040;2024-03-23T19:16:21;8.40;99.90
27707;DHT22;36332;51.384;0.040;2024-03-23T19:18:48;8.30;99.90
27707;DHT22;36332;51.384;0.040;2024-03-23T19:21:15;8.30;99.90
27707;DHT22;36332;51.384;0.040;2024-03-23T19:23:42;8.40;99.90
27707;DHT22;36332;51.384;0.040;2024-03-23T19:26:09;8.50;99.90
27707;DHT22;36332;51.384;0.040;2024-03-23T19:28:36;8.30;99.90
27707;DHT22;36332;51.384;0.040;2024-03-23T19:31:03;8.40;99.90
27707;DHT22;36332;51.384;0.040;2024-03-23T19:33:30;8.40;99.90
27707;DHT22;36332;51.384;0.040;2024-03-23T19:35:57;8.40;99.90
27707;DHT22;36332;51.384;0.040;2024-03-23T19:38:24;8.30;99.90
27707;DHT22;36332;51.384;0.040;2024-03-23T19:40:53;8.20;99.90
27707;DHT22;36332;51.384;0.040;2024-03-23T19:45:48;8.20;99.90
27707;DHT22;36332;51.384;0.040;2024-03-23T19:50:41;8.00;99.90
27707;DHT22;36332;51.384;0.040;2024-03-23T19:53:08;7.90;99.90
27707;DHT22;36332;51.384;0.040;2024-03-23T19:55:38;8.10;99.90
27707;DHT22;36332;51.384;0.040;2024-03-23T19:58:05;8.10;99.90
27707;DHT22;36332;51.384;0.040;2024-03-23T20:00:34;8.30;99.90
27707;DHT22;36332;51.384;0.040;2024-03-23T20:03:01;8.50;99.90
27707;DHT22;36332;51.384;0.040;2024-03-23T20:08:00;7.90;99.90
27707;DHT22;36332;51.384;0.040;2024-03-23T20:10:27;8.10;99.90
27707;DHT22;36332;51.384;0.040;2024-03-23T20:12:54;8.30;99.90